createdAt,value
2023-03-22T00:22:32.318Z,997.99
2023-03-22T00:23:27.529Z,997.95
2023-03-22T00:24:27.231Z,997.96
2023-03-22T00:25:27.236Z,997.95
2023-03-22T00:26:27.221Z,997.96
2023-03-22T00:27:27.172Z,997.91
2023-03-22T00:28:27.245Z,997.90
2023-03-22T00:29:27.315Z,997.89
2023-03-22T00:30:27.187Z,997.90
2023-03-22T00:31:27.209Z,997.88
2023-03-22T00:32:27.218Z,997.88
2023-03-22T00:33:27.127Z,997.85
2023-03-22T00:34:27.184Z,997.84
2023-03-22T01:05:07.361Z,997.66
2023-03-22T01:06:08.229Z,997.65
2023-03-22T01:07:08.249Z,997.67
2023-03-22T01:08:08.191Z,997.62
2023-03-22T01:09:08.189Z,997.64
2023-03-22T01:10:08.209Z,997.64
2023-03-22T01:11:08.187Z,997.63
2023-03-22T01:12:08.164Z,997.63
2023-03-22T01:13:08.170Z,997.60
2023-03-22T01:14:08.130Z,997.61
2023-03-22T01:15:08.143Z,997.58
2023-03-22T01:16:08.192Z,997.56
2023-03-22T01:17:08.109Z,997.55
2023-03-22T01:18:08.099Z,997.54
2023-03-22T01:19:08.074Z,997.54
2023-03-22T01:20:08.099Z,997.54
2023-03-22T01:21:08.070Z,997.54
2023-03-22T01:22:08.056Z,997.53
2023-03-22T01:23:08.032Z,997.51
2023-03-22T01:24:08.026Z,997.50
2023-03-22T01:25:08.021Z,997.50
2023-03-22T01:26:08.015Z,997.50
2023-03-22T01:27:08.004Z,997.49
2023-03-22T01:28:07.993Z,997.49
2023-03-22T01:29:07.979Z,997.46
2023-03-22T01:30:07.999Z,997.45
2023-03-22T01:31:08.059Z,997.45
2023-03-22T01:32:07.984Z,997.44
2023-03-22T01:33:07.958Z,997.42
2023-03-22T01:34:07.984Z,997.42
2023-03-22T01:35:07.933Z,997.43
2023-03-22T01:36:07.955Z,997.41
2023-03-22T01:37:07.909Z,997.37
2023-03-22T01:38:07.888Z,997.37
2023-03-22T01:39:07.895Z,997.37
2023-03-22T01:40:07.889Z,997.34
2023-03-22T01:41:07.894Z,997.34
2023-03-22T01:42:07.887Z,997.32
2023-03-22T01:43:07.838Z,997.32
2023-03-22T01:44:07.881Z,997.29
2023-03-22T01:45:07.841Z,997.27
2023-03-22T01:46:07.887Z,997.24
2023-03-22T01:47:07.782Z,997.23
2023-03-22T01:54:05.697Z,997.10
2023-03-22T01:55:06.659Z,997.08
2023-03-22T01:56:06.635Z,997.07
2023-03-22T01:57:06.674Z,997.06
2023-03-22T01:58:06.546Z,997.06
2023-03-22T01:59:06.616Z,997.07
2023-03-22T02:00:06.563Z,997.08
2023-03-22T02:01:06.604Z,997.08
2023-03-22T02:02:06.552Z,997.05
2023-03-22T02:03:06.616Z,997.05
2023-03-22T02:04:06.559Z,997.02
2023-03-22T02:05:06.524Z,997.01
2023-03-22T02:06:06.532Z,996.98
2023-03-22T02:07:06.485Z,996.97
2023-03-22T02:08:06.501Z,996.92
2023-03-22T02:09:06.473Z,996.91
2023-03-22T02:10:06.518Z,996.89
2023-03-22T02:11:06.466Z,996.90
2023-03-22T02:12:06.472Z,996.88
2023-03-22T02:13:06.466Z,996.85
2023-03-22T02:14:06.426Z,996.84
2023-03-22T02:15:06.414Z,996.84
2023-03-22T02:16:06.466Z,996.80
2023-03-22T02:17:06.393Z,996.77
2023-03-22T02:18:06.433Z,996.77
2023-03-22T02:19:06.423Z,996.74
2023-03-22T02:20:06.364Z,996.75
2023-03-22T02:21:06.342Z,996.74
2023-03-22T02:22:06.343Z,996.74
2023-03-22T02:23:06.357Z,996.73
2023-03-22T02:24:06.317Z,996.75
2023-03-22T02:25:06.302Z,996.73
2023-03-22T02:26:06.295Z,996.72
2023-03-22T02:27:06.277Z,996.71
2023-03-22T02:28:06.288Z,996.70
2023-03-22T02:29:06.252Z,996.70
2023-03-22T02:30:06.258Z,996.69
2023-03-22T02:31:06.260Z,996.68
2023-03-22T02:32:06.277Z,996.67
2023-03-22T02:33:06.226Z,996.67
2023-03-22T02:34:06.252Z,996.67
2023-03-22T02:35:06.237Z,996.66
2023-03-22T02:36:06.212Z,996.66
2023-03-22T02:37:06.168Z,996.64
2023-03-22T02:38:06.186Z,996.62
2023-03-22T02:39:06.185Z,996.60
2023-03-22T02:40:06.146Z,996.55
2023-03-22T02:41:06.131Z,996.51
2023-03-22T02:42:06.156Z,996.48
2023-03-22T02:43:06.119Z,996.46
2023-03-22T02:44:06.153Z,996.47
2023-03-22T02:45:06.125Z,996.47
2023-03-22T02:46:06.173Z,996.49
2023-03-22T02:47:06.121Z,996.53
2023-03-22T02:48:06.157Z,996.54
2023-03-22T02:49:35.796Z,996.53
2023-03-22T02:50:06.048Z,996.53
2023-03-22T02:51:06.055Z,996.51
2023-03-22T02:52:06.037Z,996.51
2023-03-22T02:53:06.042Z,996.50
2023-03-22T02:54:06.106Z,996.49
2023-03-22T02:55:06.037Z,996.47
2023-03-22T02:56:06.020Z,996.46
2023-03-22T02:57:06.022Z,996.44
2023-03-22T02:58:06.024Z,996.43
2023-03-22T02:59:05.976Z,996.41
2023-03-22T03:00:05.952Z,996.41
2023-03-22T03:07:05.030Z,996.30
2023-03-22T03:08:05.952Z,996.33
2023-03-22T03:09:05.950Z,996.32
2023-03-22T03:10:05.916Z,996.32
2023-03-22T03:11:05.875Z,996.34
2023-03-22T03:12:05.855Z,996.34
2023-03-22T03:13:05.831Z,996.34
2023-03-22T03:14:05.882Z,996.36
2023-03-22T03:15:05.839Z,996.34
2023-03-22T03:16:05.884Z,996.33
2023-03-22T03:17:05.840Z,996.30
2023-03-22T03:18:05.787Z,996.30
2023-03-22T03:19:05.753Z,996.29
2023-03-22T03:20:05.829Z,996.27
2023-03-22T03:21:05.792Z,996.24
2023-03-22T03:22:05.740Z,996.24
2023-03-22T03:23:05.739Z,996.23
2023-03-22T03:24:05.814Z,996.21
2023-03-22T03:25:05.746Z,996.22
2023-03-22T03:26:05.741Z,996.22
2023-03-22T03:27:05.709Z,996.24
2023-03-22T03:28:05.681Z,996.25
2023-03-22T03:29:05.709Z,996.25
2023-03-22T03:30:05.729Z,996.26
2023-03-22T03:31:05.674Z,996.25
2023-03-22T03:32:05.699Z,996.25
2023-03-22T03:33:05.642Z,996.26
2023-03-22T03:34:05.640Z,996.25
2023-03-22T03:35:05.643Z,996.25
2023-03-22T03:36:05.602Z,996.24
2023-03-22T03:37:05.669Z,996.25
2023-03-22T03:38:05.569Z,996.22
2023-03-22T03:39:05.579Z,996.20
2023-03-22T03:40:05.579Z,996.18
2023-03-22T03:41:05.562Z,996.20
2023-03-22T03:42:05.541Z,996.17
2023-03-22T03:43:05.543Z,996.17
2023-03-22T03:44:05.519Z,996.16
2023-03-22T03:45:05.532Z,996.16
2023-03-22T03:46:05.541Z,996.13
2023-03-22T03:47:05.502Z,996.13
2023-03-22T03:48:05.505Z,996.15
2023-03-22T03:49:05.498Z,996.16
2023-03-22T03:50:05.463Z,996.15
2023-03-22T03:51:05.468Z,996.13
2023-03-22T03:52:05.453Z,996.11
2023-03-22T03:53:05.471Z,996.08
2023-03-22T03:54:05.437Z,996.05
2023-03-22T03:55:05.446Z,996.04
2023-03-22T03:56:05.438Z,996.01
2023-03-22T03:57:05.393Z,996.03
2023-03-22T03:58:05.429Z,996.03
2023-03-22T03:59:05.395Z,996.02
2023-03-22T04:00:05.377Z,996.01
2023-03-22T04:01:05.401Z,996.00
2023-03-22T04:02:05.403Z,995.98
2023-03-22T04:03:05.338Z,995.99
2023-03-22T04:04:05.384Z,995.98
2023-03-22T04:07:32.940Z,995.95
2023-03-22T04:08:33.824Z,995.99
2023-03-22T04:09:33.840Z,996.00
2023-03-22T04:10:33.926Z,995.98
2023-03-22T04:11:33.752Z,996.01
2023-03-22T04:12:33.777Z,995.98
2023-03-22T04:13:33.777Z,995.98
2023-03-22T04:14:33.721Z,995.94
2023-03-22T04:17:20.378Z,995.95
2023-03-22T04:18:21.332Z,995.92
2023-03-22T04:19:21.329Z,995.91
2023-03-22T04:20:21.284Z,995.91
2023-03-22T04:21:21.242Z,995.90
2023-03-22T04:22:21.200Z,995.89
2023-03-22T04:23:21.225Z,995.90
2023-03-22T04:24:21.232Z,995.88
2023-03-22T04:25:21.200Z,995.88
2023-03-22T04:26:21.175Z,995.88
2023-03-22T04:27:21.243Z,995.86
2023-03-22T04:28:21.267Z,995.85
2023-03-22T04:29:21.149Z,995.87
2023-03-22T04:30:21.320Z,995.87
2023-03-22T04:31:21.144Z,995.89
2023-03-22T04:32:21.111Z,995.86
2023-03-22T04:33:21.315Z,995.84
2023-03-22T04:34:21.109Z,995.82
2023-03-22T04:35:21.175Z,995.82
2023-03-22T04:36:21.053Z,995.80
2023-03-22T04:37:21.054Z,995.83
2023-03-22T04:38:21.053Z,995.80
2023-03-22T04:39:21.084Z,995.81
2023-03-22T04:40:21.060Z,995.78
2023-03-22T04:41:21.033Z,995.80
2023-03-22T04:45:57.138Z,995.78
2023-03-22T04:46:58.075Z,995.76
2023-03-22T04:47:58.086Z,995.75
2023-03-22T04:48:58.041Z,995.76
2023-03-22T04:49:58.059Z,995.77
2023-03-22T04:50:58.023Z,995.79
2023-03-22T04:51:57.979Z,995.82
2023-03-22T04:52:57.966Z,995.79
2023-03-22T04:53:57.986Z,995.78
2023-03-22T04:54:57.970Z,995.79
2023-03-22T04:55:57.946Z,995.76
2023-03-22T04:56:57.895Z,995.75
2023-03-22T04:57:57.974Z,995.76
2023-03-22T04:58:57.954Z,995.74
2023-03-22T04:59:57.922Z,995.74
2023-03-22T05:00:57.939Z,995.71
2023-03-22T05:01:57.962Z,995.73
2023-03-22T05:02:57.940Z,995.74
2023-03-22T05:03:57.814Z,995.73
2023-03-22T05:04:57.814Z,995.72
2023-03-22T05:05:57.794Z,995.70
2023-03-22T05:06:57.762Z,995.68
2023-03-22T05:07:57.787Z,995.66
2023-03-22T05:08:57.772Z,995.67
2023-03-22T05:09:57.757Z,995.66
2023-03-22T05:10:57.739Z,995.68
2023-03-22T05:11:57.756Z,995.67
2023-03-22T05:12:57.709Z,995.64
2023-03-22T05:13:57.704Z,995.63
2023-03-22T05:14:57.682Z,995.66
2023-03-22T05:15:57.747Z,995.67
2023-03-22T05:16:57.667Z,995.68
2023-03-22T05:17:57.712Z,995.63
2023-03-22T05:18:57.647Z,995.59
2023-03-22T05:22:07.777Z,995.63
2023-03-22T05:23:08.671Z,995.62
2023-03-22T05:24:08.654Z,995.62
2023-03-22T05:25:08.649Z,995.60
2023-03-22T05:27:53.956Z,995.58
2023-03-22T05:28:54.884Z,995.60
2023-03-22T05:33:30.273Z,995.68
2023-03-22T05:34:31.185Z,995.62
2023-03-22T05:35:31.194Z,995.66
2023-03-22T05:36:31.168Z,995.68
2023-03-22T05:37:31.199Z,995.68
2023-03-22T05:38:31.121Z,995.67
2023-03-22T05:39:31.101Z,995.71
2023-03-22T05:40:31.102Z,995.70
2023-03-22T05:41:31.110Z,995.70
2023-03-22T05:42:31.079Z,995.70
2023-03-22T05:43:31.059Z,995.70
2023-03-22T05:44:31.052Z,995.65
2023-03-22T05:45:31.165Z,995.65
2023-03-22T05:46:31.152Z,995.68
2023-03-22T05:47:31.154Z,995.68
2023-03-22T05:48:31.019Z,995.64
2023-03-22T05:49:31.112Z,995.68
2023-03-22T05:50:31.007Z,995.65
2023-03-22T05:51:31.202Z,995.67
2023-03-22T05:52:31.044Z,995.67
2023-03-22T05:53:31.960Z,995.60
2023-03-22T05:54:30.965Z,995.55
2023-03-22T05:55:31.248Z,995.59
2023-03-22T05:56:31.079Z,995.60
2023-03-22T05:57:31.189Z,995.59
2023-03-22T06:01:35.362Z,995.56
2023-03-22T06:02:36.121Z,995.58
2023-03-22T06:03:36.178Z,995.55
2023-03-22T06:22:27.338Z,995.44
2023-03-22T06:28:56.494Z,995.40
2023-03-22T06:29:57.428Z,995.35
2023-03-22T06:30:57.457Z,995.38
2023-03-22T06:31:57.402Z,995.35
2023-03-22T06:32:57.422Z,995.33
2023-03-22T06:33:57.363Z,995.34
2023-03-22T06:34:57.354Z,995.33
2023-03-22T06:35:57.390Z,995.41
2023-03-22T06:36:57.357Z,995.32
2023-03-22T06:37:57.346Z,995.24
2023-03-22T06:38:57.327Z,995.38
2023-03-22T06:39:57.313Z,995.36
2023-03-22T06:40:57.305Z,995.33
2023-03-22T06:42:03.905Z,995.37
2023-03-22T06:42:57.274Z,995.33
2023-03-22T06:43:57.261Z,995.32
2023-03-22T06:46:21.959Z,995.30
2023-03-22T06:47:22.821Z,995.31
2023-03-22T06:48:23.632Z,995.26
2023-03-22T06:49:39.580Z,995.29
2023-03-22T06:50:22.789Z,995.34
2023-03-22T06:51:22.971Z,995.34
2023-03-22T06:52:22.921Z,995.39
2023-03-22T06:53:22.910Z,995.39
2023-03-22T06:54:22.754Z,995.34
2023-03-22T06:55:22.749Z,995.34
2023-03-22T06:56:22.759Z,995.33
2023-03-22T06:57:22.757Z,995.33
2023-03-22T06:58:22.752Z,995.34
2023-03-22T06:59:22.791Z,995.31
2023-03-22T07:00:22.765Z,995.38
2023-03-22T07:01:22.717Z,995.39
2023-03-22T07:02:22.690Z,995.36
2023-03-22T07:03:22.647Z,995.34
2023-03-22T07:04:22.689Z,995.34
2023-03-22T07:05:22.842Z,995.35
2023-03-22T07:06:22.643Z,995.36
2023-03-22T07:07:22.621Z,995.35
2023-03-22T07:08:22.611Z,995.26
2023-03-22T07:09:22.612Z,995.28
2023-03-22T07:10:22.588Z,995.23
2023-03-22T07:11:22.588Z,995.26
2023-03-22T07:12:22.572Z,995.24
2023-03-22T07:13:22.592Z,995.23
2023-03-22T07:14:22.552Z,995.24
2023-03-22T07:15:22.540Z,995.25
2023-03-22T07:16:22.893Z,995.25
2023-03-22T07:17:22.535Z,995.23
2023-03-22T07:18:22.519Z,995.27
2023-03-22T07:19:22.499Z,995.26
2023-03-22T07:20:22.509Z,995.31
2023-03-22T07:21:22.466Z,995.29
2023-03-22T07:22:22.547Z,995.35
2023-03-22T07:23:22.469Z,995.29
2023-03-22T07:24:22.438Z,995.31
2023-03-22T07:25:22.443Z,995.33
2023-03-22T07:26:22.450Z,995.31
2023-03-22T07:27:22.416Z,995.38
2023-03-22T07:28:22.428Z,995.29
2023-03-22T07:29:22.389Z,995.30
2023-03-22T07:30:22.418Z,995.29
2023-03-22T07:31:22.383Z,995.29
2023-03-22T07:32:22.526Z,995.30
2023-03-22T07:33:22.347Z,995.29
2023-03-22T07:34:22.338Z,995.29
2023-03-22T07:35:23.458Z,995.26
2023-03-22T07:55:20.658Z,995.14
2023-03-22T08:14:12.218Z,995.04
2023-03-22T08:17:35.524Z,995.15
2023-03-22T08:18:37.043Z,995.23
2023-03-22T08:22:12.216Z,995.21
2023-03-22T08:25:27.760Z,995.13
2023-03-22T08:34:49.029Z,995.19
2023-03-22T08:44:57.799Z,995.20
2023-03-22T09:25:00.570Z,995.10
2023-03-22T09:26:01.475Z,995.10
2023-03-22T09:27:01.407Z,995.09
2023-03-22T09:28:01.724Z,995.09
2023-03-22T09:29:01.388Z,995.08
2023-03-22T09:30:01.478Z,995.07
2023-03-22T09:31:01.440Z,995.08
2023-03-22T09:32:01.409Z,995.10
2023-03-22T09:33:01.447Z,994.97
2023-03-22T09:34:01.344Z,995.13
2023-03-22T09:35:01.328Z,995.02
2023-03-22T09:37:20.250Z,994.97
2023-03-22T09:38:21.688Z,994.99
2023-03-22T09:39:21.283Z,994.88
2023-03-22T09:40:21.226Z,994.95
2023-03-22T09:41:21.195Z,994.94
2023-03-22T09:42:21.142Z,994.91
2023-03-22T09:43:21.146Z,994.94
2023-03-22T09:44:21.170Z,994.93
2023-03-22T09:45:21.166Z,994.96
2023-03-22T09:46:21.143Z,994.96
2023-03-22T09:47:21.159Z,994.96
2023-03-22T09:48:21.218Z,994.85
2023-03-22T09:49:21.224Z,994.90
2023-03-22T09:50:21.063Z,994.95
2023-03-22T09:51:21.074Z,994.95
2023-03-22T09:52:21.061Z,994.91
2023-03-22T09:53:21.043Z,994.98
2023-03-22T09:54:21.002Z,994.89
2023-03-22T09:55:20.981Z,994.92
2023-03-22T09:56:21.026Z,994.96
2023-03-22T09:57:20.973Z,994.95
2023-03-22T09:58:21.018Z,994.98
2023-03-22T09:59:20.963Z,995.00
2023-03-22T10:00:21.137Z,995.01
2023-03-22T10:01:21.306Z,995.03
2023-03-22T10:02:21.052Z,995.00
2023-03-22T10:03:20.938Z,995.03
2023-03-22T10:04:21.020Z,994.97
2023-03-22T10:05:20.899Z,994.95
2023-03-22T10:06:20.897Z,994.98
2023-03-22T10:07:20.944Z,995.08
2023-03-22T10:08:20.879Z,995.06
2023-03-22T10:09:20.933Z,995.02
2023-03-22T10:10:20.911Z,995.06
2023-03-22T10:11:21.750Z,994.99
2023-03-22T11:19:02.689Z,994.85
2023-03-22T11:27:29.144Z,994.85
2023-03-22T13:05:47.329Z,994.82
2023-03-22T13:06:16.367Z,994.79
2023-03-22T13:19:50.526Z,994.79
2023-03-22T13:45:53.599Z,994.52
2023-03-22T13:46:54.595Z,994.52
2023-03-22T13:52:30.978Z,994.61
2023-03-22T13:53:31.848Z,994.58
2023-03-22T13:54:32.044Z,994.47
2023-03-22T13:55:31.767Z,994.52
2023-03-22T13:56:31.752Z,994.53
2023-03-22T13:57:31.762Z,994.50
2023-03-22T13:58:31.738Z,994.59
2023-03-22T13:59:31.832Z,994.57
2023-03-22T14:00:31.755Z,994.55
2023-03-22T14:01:31.895Z,994.60
2023-03-22T14:02:47.010Z,994.59
2023-03-22T14:03:31.862Z,994.58
2023-03-22T14:04:43.036Z,994.69
2023-03-22T14:05:32.398Z,994.61
2023-03-22T14:07:59.266Z,994.59
2023-03-22T14:09:00.269Z,994.62
2023-03-22T14:10:00.369Z,994.60
2023-03-22T14:11:00.569Z,994.59
2023-03-22T14:12:00.364Z,994.61
2023-03-22T14:14:19.474Z,994.62
2023-03-22T14:15:20.428Z,994.63
2023-03-22T14:16:20.551Z,994.58
2023-03-22T14:17:20.464Z,994.61
2023-03-22T14:18:20.486Z,994.59
2023-03-22T14:19:20.436Z,994.63
2023-03-22T14:20:20.414Z,994.64
2023-03-22T14:21:20.407Z,994.61
2023-03-22T14:52:12.050Z,994.58
2023-03-22T14:53:13.287Z,994.57
2023-03-22T14:54:12.980Z,994.58
2023-03-22T14:55:12.853Z,994.55
2023-03-22T14:56:12.855Z,994.57
2023-03-22T14:57:12.833Z,994.58
2023-03-22T14:58:12.831Z,994.60
2023-03-22T14:59:12.821Z,994.59
2023-03-22T15:00:12.842Z,994.61
2023-03-22T15:01:12.908Z,994.58
2023-03-22T15:02:12.804Z,994.56
2023-03-22T15:03:13.701Z,994.56
2023-03-22T15:04:12.772Z,994.53
2023-03-22T15:05:12.747Z,994.56
2023-03-22T15:06:12.850Z,994.56
2023-03-22T15:07:12.776Z,994.55
2023-03-22T15:08:12.713Z,994.59
2023-03-22T15:09:12.719Z,994.49
2023-03-22T15:10:12.761Z,994.60
2023-03-22T15:11:13.346Z,994.59
2023-03-22T15:12:12.691Z,994.56
2023-03-22T15:13:12.667Z,994.60
2023-03-22T15:14:12.658Z,994.56
2023-03-22T15:15:12.638Z,994.56
2023-03-22T15:16:12.697Z,994.58
2023-03-22T15:17:12.615Z,994.60
2023-03-22T15:18:12.631Z,994.54
2023-03-22T15:19:12.598Z,994.56
2023-03-22T15:20:12.579Z,994.55
2023-03-22T15:21:12.590Z,994.54
2023-03-22T15:22:12.594Z,994.53
2023-03-22T15:23:12.536Z,994.53
2023-03-22T15:24:12.568Z,994.49
2023-03-22T15:25:12.569Z,994.48
2023-03-22T15:26:12.529Z,994.45
2023-03-22T15:29:05.526Z,994.42
2023-03-22T15:30:06.478Z,994.37
2023-03-22T15:31:06.616Z,994.37
2023-03-22T15:32:06.476Z,994.39
2023-03-22T15:33:06.361Z,994.38
2023-03-22T15:34:06.420Z,994.36
2023-03-22T15:35:06.324Z,994.34
2023-03-22T15:36:06.365Z,994.29
2023-03-22T15:37:06.368Z,994.30
2023-03-22T15:38:06.294Z,994.25
2023-03-22T15:39:06.278Z,994.26
2023-03-22T15:40:06.356Z,994.23
2023-03-22T15:41:06.275Z,994.22
2023-03-22T15:42:06.292Z,994.21
2023-03-22T15:43:06.261Z,994.23
2023-03-22T15:44:06.271Z,994.21
2023-03-22T15:45:06.263Z,994.24
2023-03-22T15:46:06.457Z,994.20
2023-03-22T15:47:06.213Z,994.20
2023-03-22T15:48:06.215Z,994.16
2023-03-22T15:49:06.185Z,994.14
2023-03-22T15:50:06.385Z,994.12
2023-03-22T15:51:06.169Z,994.13
2023-03-22T15:52:06.183Z,994.11
2023-03-22T15:53:06.178Z,994.10
2023-03-22T15:54:06.132Z,994.09
2023-03-22T15:55:06.123Z,994.10
2023-03-22T15:56:06.146Z,994.12
2023-03-22T15:57:06.094Z,994.17
2023-03-22T15:58:06.112Z,994.17
2023-03-22T15:59:06.092Z,994.23
2023-03-22T16:00:06.151Z,994.20
2023-03-22T16:01:06.102Z,994.21
2023-03-22T16:02:06.138Z,994.15
2023-03-22T16:03:06.089Z,994.18
2023-03-22T16:04:06.302Z,994.18
2023-03-22T16:05:06.058Z,994.16
2023-03-22T16:06:06.035Z,994.14
2023-03-22T16:07:06.128Z,994.20
2023-03-22T16:08:06.283Z,994.21
2023-03-22T16:09:05.989Z,994.21
2023-03-22T16:10:06.084Z,994.17
2023-03-22T16:11:06.051Z,994.17
2023-03-22T16:12:05.996Z,994.17
2023-03-22T16:13:05.989Z,994.19
2023-03-22T16:14:05.984Z,994.18
2023-03-22T16:15:06.008Z,994.16
2023-03-22T16:30:36.890Z,994.32
2023-03-22T16:31:42.908Z,994.28
2023-03-22T16:32:37.684Z,994.28
2023-03-22T16:33:38.258Z,994.29
2023-03-22T16:34:37.733Z,994.32
2023-03-22T16:35:37.727Z,994.32
2023-03-22T16:36:38.630Z,994.31
2023-03-22T16:37:37.589Z,994.32
2023-03-22T16:38:37.593Z,994.34
2023-03-22T16:39:37.600Z,994.37
2023-03-22T16:40:37.617Z,994.35
2023-03-22T16:41:37.551Z,994.35
2023-03-22T16:42:37.578Z,994.32
2023-03-22T16:43:37.531Z,994.35
2023-03-22T16:44:40.510Z,994.31
2023-03-22T16:45:37.602Z,994.34
2023-03-22T17:01:32.127Z,994.31
2023-03-22T17:04:55.870Z,994.29
2023-03-22T17:11:33.381Z,994.38
2023-03-22T17:13:33.507Z,994.39
2023-03-22T17:14:34.478Z,994.34
2023-03-22T17:24:04.400Z,994.25
2023-03-22T17:26:33.583Z,994.23
2023-03-22T17:27:34.577Z,994.24
2023-03-22T17:28:35.638Z,994.21
2023-03-22T17:33:41.483Z,994.21
2023-03-22T17:37:37.573Z,994.21
2023-03-22T17:40:20.354Z,994.19
2023-03-22T17:40:49.556Z,994.21
2023-03-22T17:49:48.953Z,994.17
2023-03-22T17:50:49.983Z,994.17
2023-03-22T17:51:50.351Z,994.11
2023-03-22T18:05:07.686Z,993.89
2023-03-22T18:06:08.650Z,993.84
2023-03-22T18:07:08.538Z,993.80
2023-03-22T18:08:26.684Z,993.81
2023-03-22T18:09:08.741Z,993.79
2023-03-22T18:10:08.460Z,993.79
2023-03-22T18:11:08.498Z,993.78
2023-03-22T18:12:08.567Z,993.77
2023-03-22T18:13:08.487Z,993.79
2023-03-22T18:14:20.878Z,993.80
2023-03-22T18:15:08.607Z,993.75
2023-03-22T18:16:08.538Z,993.76
2023-03-22T18:17:08.424Z,993.77
2023-03-22T18:18:08.571Z,993.74
2023-03-22T18:19:08.399Z,993.73
2023-03-22T18:20:17.543Z,993.80
2023-03-22T18:21:08.432Z,993.75
2023-03-22T18:22:08.470Z,993.75
2023-03-22T18:23:08.416Z,993.74
2023-03-22T18:24:08.360Z,993.73
2023-03-22T20:59:03.575Z,992.89
2023-03-22T21:17:37.463Z,992.79
2023-03-22T21:18:38.450Z,992.83
2023-03-22T21:19:38.386Z,992.80
2023-03-22T21:20:38.338Z,992.81
2023-03-22T21:21:39.396Z,992.82
2023-03-22T21:22:38.306Z,992.83
2023-03-22T21:23:38.468Z,992.83
2023-03-22T21:24:38.275Z,992.81
2023-03-22T21:25:38.317Z,992.80
2023-03-22T21:26:38.337Z,992.84
2023-03-22T21:27:38.240Z,992.81
2023-03-22T21:28:38.277Z,992.83
2023-03-22T21:29:38.304Z,992.82
2023-03-22T21:30:38.221Z,992.82
2023-03-22T21:33:32.611Z,992.78
2023-03-22T21:34:33.585Z,992.78
2023-03-22T21:35:33.445Z,992.75
2023-03-22T21:36:33.383Z,992.73
2023-03-22T21:37:33.347Z,992.73
2023-03-22T21:38:33.285Z,992.65
2023-03-22T21:39:33.252Z,992.69
2023-03-22T21:40:33.307Z,992.68
2023-03-22T21:41:33.313Z,992.70
2023-03-22T21:42:34.737Z,992.67
2023-03-22T21:43:33.229Z,992.68
2023-03-22T21:44:33.312Z,992.69
2023-03-22T21:45:33.265Z,992.65
2023-03-22T21:46:33.290Z,992.64
2023-03-22T22:01:59.634Z,992.53
2023-03-22T22:03:00.782Z,992.52
2023-03-22T22:04:00.523Z,992.51
2023-03-22T22:05:00.550Z,992.54
2023-03-22T22:06:00.506Z,992.44
2023-03-22T22:07:00.516Z,992.51
2023-03-22T22:08:00.513Z,992.47
2023-03-22T22:09:00.444Z,992.47
2023-03-22T22:10:00.428Z,992.44
2023-03-22T22:11:00.496Z,992.45
2023-03-22T22:16:38.003Z,992.49
2023-03-22T22:17:39.015Z,992.50
2023-03-22T22:18:38.972Z,992.48
2023-03-22T22:19:38.869Z,992.46
2023-03-22T22:20:38.895Z,992.51
2023-03-22T22:21:38.858Z,992.48
2023-03-22T22:22:38.823Z,992.53
2023-03-22T22:23:38.809Z,992.48
2023-03-22T22:24:38.882Z,992.50
2023-03-22T22:25:38.861Z,992.49
2023-03-22T22:26:38.775Z,992.48
2023-03-22T22:27:38.973Z,992.46
2023-03-22T22:28:38.793Z,992.50
2023-03-22T22:55:37.020Z,992.20
2023-03-22T22:56:37.943Z,992.20
2023-03-22T22:57:37.928Z,992.23
2023-03-22T22:58:37.824Z,992.17
2023-03-22T22:59:37.798Z,992.14
2023-03-22T23:00:37.792Z,992.18
2023-03-22T23:01:37.779Z,992.17
2023-03-22T23:02:37.793Z,992.18
2023-03-22T23:03:37.767Z,992.13
2023-03-22T23:04:37.824Z,992.15
2023-03-22T23:05:37.764Z,992.14
2023-03-22T23:06:37.784Z,992.11
2023-03-22T23:07:37.893Z,992.14
2023-03-22T23:08:37.680Z,992.17
2023-03-22T23:09:37.685Z,992.15
2023-03-22T23:10:37.703Z,992.14
2023-03-22T23:11:37.704Z,992.14
2023-03-22T23:12:37.677Z,992.18
2023-03-22T23:13:37.644Z,992.14
2023-03-22T23:14:37.652Z,992.14
2023-03-22T23:15:37.645Z,992.14
2023-03-22T23:16:37.623Z,992.10
2023-03-22T23:17:37.607Z,992.08
2023-03-22T23:18:37.582Z,992.08
2023-03-22T23:19:37.619Z,992.07
2023-03-22T23:20:37.578Z,992.05
2023-03-22T23:21:37.569Z,992.06
2023-03-22T23:22:37.569Z,992.03
2023-03-22T23:23:53.545Z,992.00
2023-03-22T23:25:35.687Z,992.00
2023-03-22T23:26:36.612Z,991.95
2023-03-22T23:27:36.574Z,991.97
2023-03-22T23:28:36.367Z,991.98
2023-03-22T23:29:36.377Z,991.92
2023-03-22T23:30:36.345Z,991.95
2023-03-22T23:31:36.361Z,991.94
2023-03-22T23:32:36.316Z,991.99
2023-03-22T23:33:36.301Z,991.94
2023-03-22T23:34:36.298Z,991.94
2023-03-22T23:35:36.393Z,991.92
2023-03-22T23:36:36.291Z,991.88
2023-03-22T23:37:36.299Z,991.89
2023-03-22T23:38:36.302Z,991.96
2023-03-22T23:39:36.241Z,991.91
2023-03-22T23:40:36.293Z,991.84
2023-03-22T23:41:36.310Z,991.84
2023-03-22T23:42:36.278Z,991.82
2023-03-22T23:43:36.211Z,991.78
2023-03-22T23:48:38.285Z,991.70
2023-03-22T23:49:39.202Z,991.69
2023-03-22T23:50:39.214Z,991.68
2023-03-22T23:51:39.265Z,991.63
2023-03-22T23:52:39.199Z,991.64
2023-03-22T23:53:39.106Z,991.65
2023-03-22T23:54:39.129Z,991.58
2023-03-22T23:55:39.448Z,991.61
